createdAt,value
2022-11-15T00:01:20.027Z,2.15
2022-11-15T00:04:08.698Z,2.19
2022-11-15T00:06:57.375Z,2.10
2022-11-15T00:09:46.267Z,2.11
2022-11-15T00:12:35.298Z,2.06
2022-11-15T00:15:23.703Z,2.01
2022-11-15T00:18:16.196Z,1.98
2022-11-15T00:21:06.594Z,2.01
2022-11-15T00:23:55.053Z,2.02
2022-11-15T00:26:43.575Z,2.06
2022-11-15T00:29:32.678Z,2.04
2022-11-15T00:32:21.413Z,2.10
2022-11-15T00:35:09.990Z,2.12
2022-11-15T00:37:58.712Z,2.08
2022-11-15T00:40:47.240Z,2.07
2022-11-15T00:43:36.140Z,2.06
2022-11-15T00:46:25.618Z,2.05
2022-11-15T00:49:14.379Z,2.05
2022-11-15T00:52:03.572Z,2.05
2022-11-15T00:54:52.227Z,2.01
2022-11-15T00:57:42.105Z,1.96
2022-11-15T01:00:30.903Z,1.96
2022-11-15T01:03:19.749Z,1.94
2022-11-15T01:06:08.426Z,1.96
2022-11-15T01:08:56.976Z,1.99
2022-11-15T01:11:45.949Z,1.94
2022-11-15T01:14:34.461Z,1.94
2022-11-15T01:17:22.955Z,1.97
2022-11-15T01:20:11.772Z,1.94
2022-11-15T01:23:00.261Z,1.90
2022-11-15T01:25:48.968Z,1.90
2022-11-15T01:28:38.283Z,1.90
2022-11-15T01:31:26.978Z,1.92
2022-11-15T01:34:16.227Z,1.99
2022-11-15T01:37:04.945Z,1.98
2022-11-15T01:39:53.677Z,1.97
2022-11-15T01:42:42.568Z,1.99
2022-11-15T01:45:31.231Z,2.00
2022-11-15T01:48:19.886Z,2.04
2022-11-15T01:51:12.768Z,2.03
2022-11-15T01:54:02.660Z,2.02
2022-11-15T01:56:58.666Z,2.00
2022-11-15T01:59:47.630Z,2.01
2022-11-15T02:02:38.269Z,1.94
2022-11-15T02:05:26.955Z,1.91
2022-11-15T02:08:17.274Z,1.86
2022-11-15T02:11:06.955Z,1.88
2022-11-15T02:13:56.232Z,1.83
2022-11-15T02:16:51.219Z,1.83
2022-11-15T02:19:44.392Z,1.92
2022-11-15T02:22:37.768Z,1.87
2022-11-15T02:25:40.114Z,1.81
2022-11-15T02:28:48.693Z,1.76
2022-11-15T02:31:44.583Z,1.76
2022-11-15T02:34:37.899Z,1.78
2022-11-15T02:37:43.066Z,1.68
2022-11-15T02:40:47.982Z,1.75
2022-11-15T02:43:59.201Z,1.69
2022-11-15T02:47:07.161Z,1.69
2022-11-15T02:49:57.211Z,1.66
2022-11-15T02:52:50.530Z,1.60
2022-11-15T02:55:40.418Z,1.69
2022-11-15T02:58:36.466Z,1.64
2022-11-15T03:01:32.382Z,1.61
2022-11-15T03:04:37.380Z,1.61
2022-11-15T03:07:27.658Z,1.76
2022-11-15T03:10:34.068Z,1.74
2022-11-15T03:13:27.367Z,1.69
2022-11-15T03:16:34.122Z,1.56
2022-11-15T03:19:27.070Z,1.57
2022-11-15T03:22:23.629Z,1.50
2022-11-15T03:25:13.987Z,1.59
2022-11-15T03:28:04.184Z,1.58
2022-11-15T03:30:53.592Z,1.67
2022-11-15T03:33:42.799Z,1.65
2022-11-15T03:36:33.571Z,1.72
2022-11-15T03:39:23.144Z,1.70
2022-11-15T03:42:12.957Z,1.64
2022-11-15T03:45:19.417Z,1.62
2022-11-15T03:48:09.311Z,1.62
2022-11-15T03:50:58.379Z,1.57
2022-11-15T03:53:47.519Z,1.63
2022-11-15T03:56:36.500Z,1.62
2022-11-15T03:59:25.259Z,1.53
2022-11-15T04:02:14.294Z,1.60
2022-11-15T04:05:03.228Z,1.56
2022-11-15T04:07:51.897Z,1.60
2022-11-15T04:10:40.947Z,1.64
2022-11-15T04:13:30.228Z,1.65
2022-11-15T04:16:19.186Z,1.59
2022-11-15T04:19:25.649Z,1.58
2022-11-15T04:22:24.409Z,1.62
2022-11-15T04:25:13.328Z,1.55
2022-11-15T04:28:01.736Z,1.52
2022-11-15T04:30:50.667Z,1.62
2022-11-15T04:33:39.341Z,1.47
2022-11-15T04:36:46.232Z,1.47
2022-11-15T04:39:35.089Z,1.43
2022-11-15T04:42:23.803Z,1.41
2022-11-15T04:45:12.246Z,1.39
2022-11-15T04:48:01.291Z,1.42
2022-11-15T04:50:50.742Z,1.39
2022-11-15T04:53:39.773Z,1.43
2022-11-15T04:56:29.139Z,1.45
2022-11-15T04:59:17.960Z,1.47
2022-11-15T05:02:06.805Z,1.50
2022-11-15T05:04:55.410Z,1.51
2022-11-15T05:07:44.430Z,1.56
2022-11-15T05:10:33.601Z,1.63
2022-11-15T05:13:22.380Z,1.63
2022-11-15T05:16:10.976Z,1.64
2022-11-15T05:18:59.638Z,1.66
2022-11-15T05:21:49.189Z,1.63
2022-11-15T05:24:37.793Z,1.64
2022-11-15T05:27:26.808Z,1.70
2022-11-15T05:30:16.125Z,1.74
2022-11-15T05:33:05.435Z,1.82
2022-11-15T05:35:55.878Z,1.80
2022-11-15T05:38:44.890Z,1.82
2022-11-15T05:41:35.165Z,1.84
2022-11-15T05:44:24.927Z,1.85
2022-11-15T05:47:15.155Z,1.91
2022-11-15T05:50:04.272Z,2.03
2022-11-15T05:52:53.619Z,2.05
2022-11-15T05:55:42.924Z,2.03
2022-11-15T05:58:32.906Z,2.05
2022-11-15T06:01:21.826Z,2.08
2022-11-15T06:04:10.905Z,2.17
2022-11-15T06:07:00.403Z,2.27
2022-11-15T06:09:49.277Z,2.27
2022-11-15T06:12:38.045Z,2.38
2022-11-15T06:15:26.856Z,2.29
2022-11-15T06:18:15.447Z,2.29
2022-11-15T06:21:04.145Z,2.33
2022-11-15T06:23:52.644Z,2.45
2022-11-15T06:26:41.089Z,2.48
2022-11-15T06:29:30.111Z,2.44
2022-11-15T06:32:18.583Z,2.40
2022-11-15T06:35:07.736Z,2.38
2022-11-15T06:37:56.641Z,2.35
2022-11-15T06:40:45.573Z,2.32
2022-11-15T06:43:34.769Z,2.31
2022-11-15T06:46:23.901Z,2.29
2022-11-15T06:49:12.943Z,2.37
2022-11-15T06:52:01.952Z,2.39
2022-11-15T06:54:50.982Z,2.50
2022-11-15T06:57:41.156Z,2.48
2022-11-15T07:00:29.883Z,2.51
2022-11-15T07:03:18.767Z,2.57
2022-11-15T07:06:08.050Z,2.65
2022-11-15T07:08:57.293Z,2.71
2022-11-15T07:11:45.911Z,2.69
2022-11-15T07:14:34.614Z,2.68
2022-11-15T07:17:23.220Z,2.75
2022-11-15T07:20:12.587Z,2.86
2022-11-15T07:23:03.181Z,3.02
2022-11-15T07:25:51.738Z,3.13
2022-11-15T07:28:40.601Z,3.21
2022-11-15T07:31:29.449Z,3.32
2022-11-15T07:34:18.313Z,3.39
2022-11-15T07:37:07.193Z,3.38
2022-11-15T07:39:56.147Z,3.37
2022-11-15T07:42:57.273Z,3.38
2022-11-15T07:45:47.164Z,3.40
2022-11-15T07:48:43.992Z,3.30
2022-11-15T07:51:25.743Z,3.23
2022-11-15T07:54:14.535Z,3.14
2022-11-15T07:57:07.263Z,3.14
2022-11-15T07:59:53.952Z,3.21
2022-11-15T08:02:43.428Z,3.29
2022-11-15T08:05:32.525Z,3.26
2022-11-15T08:08:21.463Z,3.21
2022-11-15T08:11:10.071Z,3.19
2022-11-15T08:13:59.632Z,3.23
2022-11-15T08:16:48.429Z,3.28
2022-11-15T08:19:37.564Z,3.24
2022-11-15T08:22:26.460Z,3.20
2022-11-15T08:25:14.924Z,3.22
2022-11-15T08:28:05.036Z,3.32
2022-11-15T08:30:54.015Z,3.38
2022-11-15T08:33:42.778Z,3.48
2022-11-15T08:36:38.061Z,3.58
2022-11-15T08:39:22.037Z,3.67
2022-11-15T08:42:11.923Z,3.78
2022-11-15T08:45:00.914Z,3.93
2022-11-15T08:47:53.913Z,4.11
2022-11-15T08:50:40.050Z,4.27
2022-11-15T08:53:28.968Z,4.36
2022-11-15T08:56:18.046Z,4.41
2022-11-15T08:59:06.735Z,4.55
2022-11-15T09:01:56.905Z,4.68
2022-11-15T09:04:45.575Z,4.71
2022-11-15T09:07:34.241Z,4.64
2022-11-15T09:10:23.790Z,4.63
2022-11-15T09:13:12.620Z,4.65
2022-11-15T09:16:02.064Z,4.59
2022-11-15T09:18:50.688Z,4.51
2022-11-15T09:21:39.284Z,4.38
2022-11-15T09:24:27.771Z,4.35
2022-11-15T09:27:16.636Z,4.31
2022-11-15T09:30:05.416Z,4.24
2022-11-15T09:32:54.073Z,4.23
2022-11-15T09:35:42.984Z,4.22
2022-11-15T09:38:32.262Z,4.29
2022-11-15T09:41:38.288Z,4.27
2022-11-15T09:44:31.754Z,4.28
2022-11-15T09:47:22.002Z,4.33
2022-11-15T09:49:58.998Z,4.37
2022-11-15T09:52:32.836Z,4.37
2022-11-15T09:55:03.984Z,4.41
2022-11-15T09:57:37.012Z,4.38
2022-11-15T10:00:44.769Z,4.33
2022-11-15T10:03:05.987Z,4.29
2022-11-15T10:05:44.344Z,4.26
2022-11-15T10:08:36.101Z,4.23
2022-11-15T10:13:46.226Z,4.11
2022-11-15T10:16:24.539Z,4.09
2022-11-15T10:19:13.145Z,4.06
2022-11-15T10:22:01.756Z,4.07
2022-11-15T10:24:34.176Z,4.05
2022-11-15T10:27:06.722Z,4.01
2022-11-15T10:29:38.251Z,3.93
2022-11-15T10:32:09.297Z,3.91
2022-11-15T10:34:40.635Z,3.88
2022-11-15T10:37:11.871Z,3.84
2022-11-15T10:39:42.904Z,3.84
2022-11-15T10:42:18.298Z,3.83
2022-11-15T10:44:49.344Z,3.75
2022-11-15T10:47:25.215Z,3.70
2022-11-15T10:49:57.774Z,3.65
2022-11-15T10:52:29.120Z,3.61
2022-11-15T10:55:01.457Z,3.62
2022-11-15T10:57:34.011Z,3.60
2022-11-15T11:00:09.514Z,3.62
2022-11-15T11:02:43.115Z,3.64
2022-11-15T11:05:41.035Z,3.63
2022-11-15T11:08:08.596Z,3.64
2022-11-15T11:11:01.461Z,3.62
2022-11-15T11:13:17.007Z,3.66
2022-11-15T11:15:49.084Z,3.64
2022-11-15T11:18:21.275Z,3.62
2022-11-15T11:20:53.486Z,3.63
2022-11-15T11:23:25.814Z,3.60
2022-11-15T11:26:10.191Z,3.59
2022-11-15T11:28:58.863Z,3.59
2022-11-15T11:31:34.007Z,3.60
2022-11-15T11:34:06.388Z,3.63
2022-11-15T11:36:55.577Z,3.66
2022-11-15T11:39:45.485Z,3.68
2022-11-15T11:42:17.930Z,3.70
2022-11-15T11:45:02.024Z,3.72
2022-11-15T11:47:43.295Z,3.76
2022-11-15T11:50:15.931Z,3.66
2022-11-15T11:52:51.426Z,3.64
2022-11-15T11:55:24.067Z,3.62
2022-11-15T11:58:12.784Z,3.47
2022-11-15T12:00:45.350Z,3.32
2022-11-15T12:03:18.497Z,3.25
2022-11-15T12:05:50.870Z,3.20
2022-11-15T12:08:26.412Z,3.15
2022-11-15T12:11:04.829Z,3.10
2022-11-15T12:13:37.910Z,3.03
2022-11-15T12:16:25.685Z,2.93
2022-11-15T12:18:58.106Z,2.83
2022-11-15T12:21:39.509Z,2.74
2022-11-15T12:24:17.801Z,2.65
2022-11-15T12:26:50.329Z,2.52
2022-11-15T12:29:25.819Z,2.41
2022-11-15T12:31:59.606Z,2.29
2022-11-15T12:34:32.076Z,2.23
2022-11-15T12:37:02.845Z,2.19
2022-11-15T12:39:37.988Z,2.12
2022-11-15T12:42:10.306Z,2.07
2022-11-15T12:44:42.751Z,2.06
2022-11-15T12:47:17.261Z,2.03
2022-11-15T12:49:48.433Z,1.98
2022-11-15T12:52:19.952Z,1.97
2022-11-15T12:54:52.279Z,1.97
2022-11-15T12:57:27.725Z,1.93
2022-11-15T13:00:01.551Z,1.90
2022-11-15T13:02:44.925Z,1.89
2022-11-15T13:05:19.950Z,1.84
2022-11-15T13:07:52.147Z,1.80
2022-11-15T13:10:30.314Z,1.78
2022-11-15T13:13:05.518Z,1.77
2022-11-15T13:15:42.555Z,1.79
2022-11-15T13:18:11.766Z,1.78
2022-11-15T13:20:44.075Z,1.75
2022-11-15T13:23:16.741Z,1.79
2022-11-15T13:25:49.693Z,1.73
2022-11-15T13:28:22.029Z,1.72
2022-11-15T13:30:54.221Z,1.68
2022-11-15T13:33:29.309Z,1.69
2022-11-15T13:36:03.497Z,1.64
2022-11-15T13:38:35.893Z,1.64
2022-11-15T13:41:13.881Z,1.64
2022-11-15T13:43:44.909Z,1.63
2022-11-15T13:46:19.807Z,1.59
2022-11-15T13:48:55.198Z,1.57
2022-11-15T13:51:30.515Z,1.56
2022-11-15T13:54:02.765Z,1.56
2022-11-15T13:56:35.111Z,1.56
2022-11-15T13:59:13.720Z,1.58
2022-11-15T14:01:45.044Z,1.64
2022-11-15T14:04:17.299Z,1.63
2022-11-15T14:06:49.788Z,1.63
2022-11-15T14:09:22.399Z,1.58
2022-11-15T14:11:54.725Z,1.60
2022-11-15T14:14:28.996Z,1.58
2022-11-15T14:17:01.372Z,1.57
2022-11-15T14:19:35.398Z,1.53
2022-11-15T14:22:11.390Z,1.61
2022-11-15T14:24:43.523Z,1.52
2022-11-15T14:27:27.471Z,1.51
2022-11-15T14:29:58.681Z,1.52
2022-11-15T14:32:33.870Z,1.42
2022-11-15T14:35:05.077Z,1.36
2022-11-15T14:37:36.356Z,1.30
2022-11-15T14:40:09.632Z,1.25
2022-11-15T14:42:41.794Z,1.22
2022-11-15T14:45:14.607Z,1.22
2022-11-15T14:47:45.793Z,1.21
2022-11-15T14:50:18.012Z,1.26
2022-11-15T14:52:50.002Z,1.21
2022-11-15T14:55:29.631Z,1.18
2022-11-15T14:58:01.142Z,1.16
2022-11-15T15:00:35.417Z,1.17
2022-11-15T15:03:06.123Z,1.14
2022-11-15T15:05:44.081Z,1.16
2022-11-15T15:08:15.215Z,1.18
2022-11-15T15:10:47.712Z,1.17
2022-11-15T15:13:20.726Z,1.21
2022-11-15T15:15:52.205Z,1.20
2022-11-15T15:18:23.272Z,1.19
2022-11-15T15:21:00.280Z,1.21
2022-11-15T15:23:32.146Z,1.18
2022-11-15T15:26:03.193Z,1.16
2022-11-15T15:28:34.978Z,1.21
2022-11-15T15:31:06.123Z,1.24
2022-11-15T15:33:37.229Z,1.22
2022-11-15T15:36:09.572Z,1.20
2022-11-15T15:38:42.098Z,1.33
2022-11-15T15:41:13.667Z,1.21
2022-11-15T15:43:44.995Z,1.19
2022-11-15T15:46:17.168Z,1.21
2022-11-15T15:48:48.193Z,1.20
2022-11-15T15:51:20.735Z,1.19
2022-11-15T15:53:53.095Z,1.19
2022-11-15T15:56:23.869Z,1.22
2022-11-15T15:58:56.887Z,1.26
2022-11-15T16:01:28.405Z,1.26
2022-11-15T16:03:59.767Z,1.28
2022-11-15T16:06:37.618Z,1.28
2022-11-15T16:09:15.856Z,1.37
2022-11-15T16:11:41.500Z,1.32
2022-11-15T16:14:12.728Z,1.24
2022-11-15T16:16:43.423Z,1.18
2022-11-15T16:19:14.560Z,1.17
2022-11-15T16:21:45.500Z,1.16
2022-11-15T16:24:16.338Z,1.15
2022-11-15T16:26:47.425Z,1.15
2022-11-15T16:29:18.892Z,1.17
2022-11-15T16:31:50.480Z,1.22
2022-11-15T16:34:21.889Z,1.20
2022-11-15T16:36:53.195Z,1.18
2022-11-15T16:39:24.613Z,1.21
2022-11-15T16:41:55.684Z,1.22
2022-11-15T16:44:26.675Z,1.25
2022-11-15T16:46:57.706Z,1.29
2022-11-15T16:49:28.655Z,1.29
2022-11-15T16:51:59.525Z,1.31
2022-11-15T16:54:30.406Z,1.35
2022-11-15T16:57:01.877Z,1.35
2022-11-15T16:59:38.171Z,1.33
2022-11-15T17:02:07.515Z,1.36
2022-11-15T17:04:38.830Z,1.40
2022-11-15T17:07:10.275Z,1.32
2022-11-15T17:09:41.253Z,1.27
2022-11-15T17:12:12.167Z,1.32
2022-11-15T17:14:43.067Z,1.27
2022-11-15T17:17:13.959Z,1.27
2022-11-15T17:19:44.784Z,1.23
2022-11-15T17:22:15.661Z,1.30
2022-11-15T17:24:47.912Z,1.28
2022-11-15T17:27:19.039Z,1.27
2022-11-15T17:29:49.908Z,1.26
2022-11-15T17:32:21.080Z,1.25
2022-11-15T17:34:51.852Z,1.25
2022-11-15T17:37:22.690Z,1.27
2022-11-15T17:39:53.779Z,1.27
2022-11-15T17:42:24.620Z,1.26
2022-11-15T17:44:55.379Z,1.27
2022-11-15T17:47:26.254Z,1.28
2022-11-15T17:49:57.012Z,1.27
2022-11-15T17:52:27.777Z,1.27
2022-11-15T17:54:58.513Z,1.33
2022-11-15T17:57:29.395Z,1.27
2022-11-15T18:00:00.285Z,1.27
2022-11-15T18:02:32.558Z,1.26
2022-11-15T18:05:04.081Z,1.21
2022-11-15T18:07:34.935Z,1.17
2022-11-15T18:10:06.005Z,1.17
2022-11-15T18:12:37.004Z,1.17
2022-11-15T18:15:08.194Z,1.17
2022-11-15T18:17:39.007Z,1.16
2022-11-15T18:20:10.265Z,1.16
2022-11-15T18:22:41.052Z,1.15
2022-11-15T18:25:11.915Z,1.17
2022-11-15T18:27:43.192Z,1.20
2022-11-15T18:30:14.005Z,1.22
2022-11-15T18:32:44.786Z,1.27
2022-11-15T18:35:16.124Z,1.30
2022-11-15T18:37:46.967Z,1.27
2022-11-15T18:40:18.609Z,1.23
2022-11-15T18:42:49.387Z,1.18
2022-11-15T18:45:24.016Z,1.17
2022-11-15T18:47:52.781Z,1.19
2022-11-15T18:50:23.774Z,1.19
2022-11-15T18:52:54.571Z,1.23
2022-11-15T18:55:25.382Z,1.26
2022-11-15T18:57:57.371Z,1.24
2022-11-15T19:00:28.191Z,1.25
2022-11-15T19:02:59.032Z,1.26
2022-11-15T19:05:30.148Z,1.29
2022-11-15T19:08:00.933Z,1.29
2022-11-15T19:10:31.901Z,1.31
2022-11-15T19:13:03.092Z,1.33
2022-11-15T19:15:34.326Z,1.35
2022-11-15T19:18:05.336Z,1.32
2022-11-15T19:20:36.519Z,1.36
2022-11-15T19:23:07.307Z,1.31
2022-11-15T19:25:38.093Z,1.28
2022-11-15T19:28:08.816Z,1.27
2022-11-15T19:30:39.673Z,1.25
2022-11-15T19:33:10.592Z,1.29
2022-11-15T19:35:41.330Z,1.27
2022-11-15T19:38:12.331Z,1.27
2022-11-15T19:40:43.248Z,1.28
2022-11-15T19:43:14.286Z,1.30
2022-11-15T19:45:45.030Z,1.32
2022-11-15T19:48:15.975Z,1.33
2022-11-15T19:50:46.727Z,1.32
2022-11-15T19:53:18.110Z,1.34
2022-11-15T19:55:59.091Z,1.36
2022-11-15T19:58:30.477Z,1.37
2022-11-15T20:01:05.766Z,1.37
2022-11-15T20:03:36.961Z,1.36
2022-11-15T20:06:18.072Z,1.34
2022-11-15T20:08:48.915Z,1.34
2022-11-15T20:11:20.411Z,1.33
2022-11-15T20:13:51.293Z,1.34
2022-11-15T20:16:22.949Z,1.34
2022-11-15T20:18:54.006Z,1.33
2022-11-15T20:21:24.902Z,1.35
2022-11-15T20:23:56.505Z,1.35
2022-11-15T20:26:27.351Z,1.32
2022-11-15T20:28:59.745Z,1.29
2022-11-15T20:31:31.572Z,1.29
2022-11-15T20:34:02.630Z,1.27
2022-11-15T20:36:33.419Z,1.30
2022-11-15T20:39:04.372Z,1.27
2022-11-15T20:41:35.065Z,1.26
2022-11-15T20:44:05.807Z,1.26
2022-11-15T20:46:36.619Z,1.28
2022-11-15T20:49:07.524Z,1.28
2022-11-15T20:51:38.373Z,1.27
2022-11-15T20:54:09.337Z,1.28
2022-11-15T20:56:40.263Z,1.30
2022-11-15T20:59:11.108Z,1.29
2022-11-15T21:01:41.935Z,1.30
2022-11-15T21:04:12.838Z,1.31
2022-11-15T21:06:47.677Z,1.32
2022-11-15T21:09:34.114Z,1.31
2022-11-15T21:12:14.140Z,1.28
2022-11-15T21:14:45.112Z,1.29
2022-11-15T21:17:16.516Z,1.25
2022-11-15T21:19:47.557Z,1.25
2022-11-15T21:22:18.435Z,1.30
2022-11-15T21:24:49.210Z,1.22
2022-11-15T21:27:20.129Z,1.20
2022-11-15T21:29:50.986Z,1.18
2022-11-15T21:32:21.878Z,1.20
2022-11-15T21:34:54.376Z,1.16
2022-11-15T21:37:25.458Z,1.16
2022-11-15T21:39:56.523Z,1.14
2022-11-15T21:42:27.261Z,1.12
2022-11-15T21:44:58.017Z,1.13
2022-11-15T21:47:28.937Z,1.09
2022-11-15T21:49:59.670Z,1.11
2022-11-15T21:52:31.833Z,1.09
2022-11-15T21:55:02.704Z,1.07
2022-11-15T21:57:33.740Z,1.06
2022-11-15T22:00:23.341Z,1.08
2022-11-15T22:02:54.175Z,1.06
2022-11-15T22:05:25.169Z,1.06
2022-11-15T22:07:56.928Z,1.06
2022-11-15T22:10:27.959Z,1.03
2022-11-15T22:12:59.216Z,1.01
2022-11-15T22:15:29.909Z,1.01
2022-11-15T22:18:00.815Z,1.00
2022-11-15T22:20:47.260Z,0.99
2022-11-15T22:23:04.832Z,0.99
2022-11-15T22:25:35.524Z,0.98
2022-11-15T22:28:06.431Z,0.99
2022-11-15T22:30:37.318Z,0.97
2022-11-15T22:33:08.134Z,1.00
2022-11-15T22:35:39.400Z,0.96
2022-11-15T22:38:10.182Z,0.96
2022-11-15T22:40:40.890Z,0.95
2022-11-15T22:43:13.241Z,0.92
2022-11-15T22:45:51.226Z,0.90
2022-11-15T22:48:23.256Z,0.88
2022-11-15T22:50:54.289Z,0.88
2022-11-15T22:53:24.992Z,0.87
2022-11-15T22:55:57.212Z,0.87
2022-11-15T22:58:29.034Z,0.84
2022-11-15T23:01:01.124Z,0.82
2022-11-15T23:03:32.546Z,0.83
2022-11-15T23:06:05.137Z,0.81
2022-11-15T23:08:36.562Z,0.82
2022-11-15T23:11:25.680Z,0.85
2022-11-15T23:13:56.882Z,0.83
2022-11-15T23:16:29.601Z,0.84
2022-11-15T23:19:00.938Z,0.77
2022-11-15T23:21:51.377Z,0.73
2022-11-15T23:24:22.544Z,0.71
2022-11-15T23:26:55.356Z,0.68
2022-11-15T23:29:26.961Z,0.68
2022-11-15T23:32:15.678Z,0.69
2022-11-15T23:34:46.693Z,0.66
2022-11-15T23:37:17.760Z,0.65
2022-11-15T23:39:48.697Z,0.68
2022-11-15T23:42:22.464Z,0.65
2022-11-15T23:44:53.304Z,0.68
2022-11-15T23:47:24.086Z,0.72
2022-11-15T23:49:54.824Z,0.72
2022-11-15T23:52:25.819Z,0.67
2022-11-15T23:54:56.539Z,0.65
2022-11-15T23:57:27.498Z,0.62
